Morobe, Papua New Guinea
Current Conditions -  °F | °C
As of 10:01 AM on Thursday 23 Oct 2014 (Local Time) from AYPY Reporting Station
Broken Clouds Broken Clouds  
Wind Chill: 82°   Ceiling: 4000
Heat Index: 85°   Visibility: 6mi
Dew Point: 68°   Wind: 17mph
Humidity: 62%   Direction: 110°ESE
Pressure: 29.88"   Gusts: NA
Location:  7.75°S, 147.62°E
Report Text: AYPY 230001Z 11015KT 9999 FEW020 BKN040 BKN130 28/20 Q1012 RMKS: HZ
Loading
Personal Weather Stations






























Interactive Weather Map
Tropical Storm Tracking
New forecast layout! Learn more

10-Day Weather Forecast

Advertisements
Track Severe Weather on mobile